Latest Weather Observations for Swan Hill

IDN60801

Issued at 2:04 pm EDT Tuesday 3 March 2015 (issued every 30 minutes, with the page automatically refreshed every 10 minutes)

About weather observations | Map of weather stations | Latest weather observations for NSW | Other Formats
Station Details ID: 077094 Name: SWAN HILL AERODROME Lat: -35.38 Lon: 143.54 Height: 71.0 m
Data from the previous 72 hours. | See also: Recent months at Swan Hill
Date/Time
EDT
Temp
°C
App
Temp
°C
Dew
Point
Rel
Hum
%
Delta-T
°C
Wind Press
QNH
hPa
Press
MSL
hPa
Rain
since 9 am
mm
Dir
 
Spd
km/h
Gust
km/h
Spd
kts
Gust
kts
03/02:00pm 30.5 25.6 1.9 16 14.2 SW 17 28 9 15 1014.4 1014.2 0.0
03/01:30pm 30.3 25.5 2.5 17 13.9 SW 17 28 9 15 1014.6 1014.4 0.0
03/01:00pm 29.4 26.3 3.4 19 13.1 SSW 9 17 5 9 1015.0 1014.8 0.0
03/12:30pm 27.2 24.2 4.3 23 11.6 S 9 20 5 11 1015.5 1015.3 0.0
03/12:00pm 26.5 22.3 3.7 23 11.4 SSE 15 24 8 13 1015.9 1015.7 0.0
03/11:30am 25.8 22.2 4.9 26 10.6 SSE 13 19 7 10 1015.9 1015.7 0.0
03/11:00am 24.6 21.2 5.9 30 9.6 ESE 13 17 7 9 1016.0 1015.8 0.0
03/10:30am 23.5 20.2 6.3 33 8.8 ESE 13 20 7 11 1015.9 1015.7 0.0
03/10:00am 23.3 19.7 6.6 34 8.6 SE 15 22 8 12 1015.7 1015.5 0.0
03/09:30am 21.8 18.1 6.1 36 7.9 SSE 15 20 8 11 1015.7 1015.5 0.0
03/09:00am 21.4 17.2 5.7 36 7.9 SE 17 24 9 13 1015.5 1015.3 0.0
03/08:30am 20.6 16.2 5.0 36 7.7 SSE 17 24 9 13 1015.4 1015.2 0.0
03/08:00am 20.0 16.0 2.8 32 8.1 SSE 13 19 7 10 1015.0 1014.8 0.0
03/07:30am 19.9 16.3 0.9 28 8.6 S 9 13 5 7 1014.8 1014.6 0.0
03/07:00am 20.0 16.2 -0.6 25 9.0 S 9 13 5 7 1014.2 1014.0 0.0
03/06:30am 20.2 16.2 -2.2 22 9.5 S 9 15 5 8 1014.0 1013.8 0.0
03/06:00am 20.3 16.5 -3.4 20 9.8 SSE 7 9 4 5 1013.4 1013.2 0.0
03/05:30am 20.7 16.5 -3.7 19 10.1 S 9 11 5 6 1013.2 1013.0 0.0
03/05:00am 20.7 16.5 -3.7 19 10.1 S 9 13 5 7 1013.3 1013.1 0.0
03/04:30am 20.7 16.4 -4.4 18 10.2 S 9 13 5 7 1013.5 1013.3 0.0
03/04:00am 20.8 17.5 -4.4 18 10.3 SSW 4 7 2 4 1013.2 1013.0 0.0
03/03:30am 21.2 16.9 -4.8 17 10.6 SSW 9 13 5 7 1013.3 1013.1 0.0
03/03:00am 21.3 16.6 -4.7 17 10.6 S 11 17 6 9 1013.1 1012.9 0.0
03/02:30am 21.5 17.2 -4.5 17 10.7 SSW 9 13 5 7 1013.4 1013.2 0.0
03/02:00am 21.5 16.9 -4.5 17 10.7 SSW 11 15 6 8 1013.4 1013.2 0.0
03/01:30am 21.8 17.6 -4.3 17 10.8 SSW 9 15 5 8 1013.5 1013.3 0.0
03/01:00am 22.0 17.9 -3.4 18 10.7 S 9 13 5 7 1013.4 1013.2 0.0
03/12:30am 22.3 18.6 -3.1 18 10.8 SSW 7 11 4 6 1013.6 1013.4 0.0
03/12:00am 22.5 18.8 -3.0 18 10.9 S 7 9 4 5 1013.4 1013.2 0.0
 
Date/Time
EDT
Temp
°C
App
Temp
°C
Dew
Point
Rel
Hum
%
Delta-T
°C
Wind Press
QNH
hPa
Press
MSL
hPa
Rain
since 9 am
mm
Dir
 
Spd
km/h
Gust
km/h
Spd
kts
Gust
kts
02/11:30pm 22.9 18.8 -3.4 17 11.2 S 9 13 5 7 1013.8 1013.6 0.0
02/11:00pm 23.2 18.7 -3.2 17 11.3 S 11 15 6 8 1014.0 1013.8 0.0
02/10:30pm 23.5 19.1 -2.2 18 11.2 S 11 17 6 9 1013.8 1013.6 0.0
02/10:00pm 24.0 19.3 -1.8 18 11.4 S 13 19 7 10 1013.9 1013.7 0.0
02/09:30pm 24.5 19.9 -1.3 18 11.6 S 13 20 7 11 1013.7 1013.5 0.0
02/09:00pm 24.8 20.3 -0.4 19 11.5 S 13 19 7 10 1013.5 1013.3 0.0
02/08:30pm 25.4 20.2 0.1 19 11.7 S 17 24 9 13 1013.0 1012.8 0.0
02/08:00pm 26.2 20.7 0.8 19 12.0 S 19 26 10 14 1012.8 1012.6 0.0
02/07:30pm 26.9 21.8 0.6 18 12.4 S 17 24 9 13 1012.6 1012.4 0.0
02/07:00pm 27.9 24.4 1.4 18 12.8 SSE 9 15 5 8 1012.3 1012.1 0.0
02/06:30pm 27.9 24.9 0.6 17 13.0 ESE 6 9 3 5 1012.1 1011.9 0.0
02/06:00pm 28.3 24.4 0.9 17 13.2 ESE 11 19 6 10 1011.9 1011.7 0.0
02/05:30pm 28.6 25.6 2.0 18 13.1 ESE 7 17 4 9 1011.8 1011.6 0.0
02/05:00pm 28.7 25.2 1.3 17 13.3 ESE 9 19 5 10 1011.7 1011.5 0.0
02/04:30pm 27.8 24.7 3.5 21 12.2 ESE 9 13 5 7 1012.1 1011.9 0.0
02/04:00pm 27.9 24.8 3.6 21 12.2 NE 9 20 5 11 1012.2 1012.0 0.0
02/03:30pm 28.4 25.0 4.0 21 12.4 ENE 11 20 6 11 1012.6 1012.4 0.0
02/03:00pm 27.4 24.5 4.5 23 11.7 SSE 9 17 5 9 1013.2 1013.0 0.0
02/02:30pm 27.6 24.6 5.8 25 11.4 NNW 11 20 6 11 1013.9 1013.7 0.0
02/02:00pm 26.5 24.2 5.5 26 10.8 WNW 7 13 4 7 1014.0 1013.8 0.0
02/01:30pm 26.3 23.5 5.3 26 10.8 SE 9 15 5 8 1014.5 1014.3 0.0
02/01:00pm 25.5 22.5 6.2 29 10.0 ENE 11 19 6 10 1015.1 1014.9 0.0
02/12:30pm 25.2 23.2 8.7 35 8.9 E 9 15 5 8 1015.5 1015.3 0.0
02/12:00pm 23.8 21.5 9.0 39 8.0 NE 11 19 6 10 1016.0 1015.8 0.0
02/11:30am 21.8 19.1 9.0 44 6.8 ENE 13 19 7 10 1016.6 1016.4 0.0
02/11:00am 20.5 17.4 8.8 47 6.2 ESE 15 22 8 12 1016.8 1016.6 0.0
02/10:30am 18.7 15.1 8.4 51 5.3 SE 17 24 9 13 1017.1 1016.9 0.0
02/10:00am 17.5 13.8 8.1 54 4.8 SE 17 26 9 14 1017.1 1016.9 0.0
02/09:30am 16.6 12.4 8.3 58 4.2 SE 20 26 11 14 1017.1 1016.9 0.0
02/09:00am 15.3 11.4 8.5 64 3.4 SE 19 28 10 15 1017.1 1016.9 0.0
02/08:30am 14.2 11.0 8.6 69 2.8 SE 15 20 8 11 1017.1 1016.9 0.0
02/08:00am 12.5 9.6 8.0 74 2.2 SE 13 20 7 11 1016.9 1016.7 0.0
02/07:30am 11.2 8.5 7.5 78 1.8 SE 11 17 6 9 1016.8 1016.6 0.0
02/07:00am 11.1 8.4 7.4 78 1.8 SSE 11 17 6 9 1016.4 1016.2 0.0
02/06:30am 11.5 8.8 7.4 76 2.0 SE 11 17 6 9 1016.2 1016.0 0.0
02/06:00am 12.2 9.2 7.7 74 2.2 SE 13 17 7 9 1015.9 1015.7 0.0
02/05:30am 13.1 9.8 8.0 71 2.5 SE 15 22 8 12 1015.9 1015.7 0.0
02/05:00am 14.1 10.5 8.5 69 2.8 SE 17 24 9 13 1016.1 1015.9 0.0
02/04:30am 14.1 10.1 8.1 67 3.0 SE 19 28 10 15 1015.7 1015.5 0.0
02/04:00am 14.2 10.6 8.2 67 3.0 SE 17 28 9 15 1015.7 1015.5 0.0
02/03:30am 14.4 11.0 7.7 64 3.3 SSE 15 22 8 12 1015.9 1015.7 0.0
02/03:00am 14.7 11.2 7.3 61 3.6 ESE 15 22 8 12 1015.8 1015.6 0.0
02/02:30am 14.8 11.3 7.1 60 3.8 SE 15 24 8 13 1016.1 1015.9 0.0
02/02:00am 15.3 11.4 7.1 58 4.0 SE 17 26 9 14 1016.2 1016.0 0.0
02/01:30am 15.9 12.8 7.4 57 4.2 SE 13 19 7 10 1016.7 1016.5 0.0
02/01:00am 16.7 13.2 7.4 54 4.7 SSE 15 24 8 13 1016.6 1016.4 0.0
02/12:30am 17.5 14.1 7.5 52 5.1 SE 15 22 8 12 1016.2 1016.0 0.0
02/12:00am 18.3 14.2 8.0 51 5.3 SE 19 33 10 18 1016.1 1015.9 0.0
 
Date/Time
EDT
Temp
°C
App
Temp
°C
Dew
Point
Rel
Hum
%
Delta-T
°C
Wind Press
QNH
hPa
Press
MSL
hPa
Rain
since 9 am
mm
Dir
 
Spd
km/h
Gust
km/h
Spd
kts
Gust
kts
01/11:30pm 18.9 14.8 8.0 49 5.6 ESE 19 28 10 15 1015.8 1015.6 0.0
01/11:00pm 20.0 15.7 8.0 46 6.2 SE 20 33 11 18 1016.1 1015.9 0.0
01/10:30pm 20.7 16.8 5.5 37 7.5 SE 15 24 8 13 1016.0 1015.8 0.0
01/10:00pm 21.1 17.0 4.2 33 8.2 SSE 15 20 8 11 1015.4 1015.2 0.0
01/09:30pm 21.5 17.3 3.7 31 8.6 SE 15 19 8 10 1014.9 1014.7 0.0
01/09:00pm 22.4 17.8 3.5 29 9.1 SE 17 24 9 13 1014.5 1014.3 0.0
01/08:30pm 23.2 18.7 4.2 29 9.4 SE 17 28 9 15 1014.0 1013.8 0.0
01/08:00pm 24.3 19.8 4.1 27 10.0 SE 17 26 9 14 1013.7 1013.5 0.0
01/07:30pm 25.3 19.9 4.4 26 10.5 SSE 22 33 12 18 1013.6 1013.4 0.0
01/07:00pm 26.2 21.0 3.4 23 11.3 S 20 32 11 17 1013.2 1013.0 0.0
01/06:30pm 26.8 21.8 4.6 24 11.3 SSE 20 33 11 18 1012.9 1012.7 0.0
01/06:00pm 27.0 22.0 4.7 24 11.4 S 20 33 11 18 1012.6 1012.4 0.0
01/05:30pm 27.2 21.8 4.3 23 11.6 SSE 22 33 12 18 1012.5 1012.3 0.0
01/05:00pm 27.4 22.5 5.1 24 11.5 S 20 32 11 17 1012.4 1012.2 0.0
01/04:30pm 26.7 21.4 5.1 25 11.1 S 22 39 12 21 1012.7 1012.5 0.0
01/04:00pm 27.1 22.1 4.8 24 11.4 S 20 35 11 19 1012.6 1012.4 0.0
01/03:30pm 26.1 20.8 5.1 26 10.7 SSW 22 37 12 20 1012.8 1012.6 0.0
01/03:00pm 25.7 20.1 5.3 27 10.4 SSW 24 43 13 23 1012.9 1012.7 0.0
01/02:30pm 25.2 20.5 5.9 29 9.9 S 20 33 11 18 1013.1 1012.9 0.0
01/02:00pm 24.7 19.1 5.5 29 9.8 S 24 35 13 19 1013.1 1012.9 0.0
01/01:30pm 24.1 19.4 5.9 31 9.3 S 20 37 11 20 1013.2 1013.0 0.0
01/01:00pm 23.4 18.7 6.2 33 8.8 S 20 32 11 17 1013.6 1013.4 0.0
01/12:30pm 23.2 18.3 6.9 35 8.4 SSW 22 33 12 18 1013.9 1013.7 0.0
01/12:00pm 22.9 18.6 7.8 38 7.9 SSW 20 30 11 16 1013.9 1013.7 0.0
01/11:30am 21.3 17.2 8.6 44 6.7 S 20 35 11 19 1013.8 1013.6 0.0
01/11:00am 20.6 16.6 8.9 47 6.2 SSW 20 32 11 17 1013.8 1013.6 0.0
01/10:30am 20.0 16.1 9.3 50 5.7 SSW 20 37 11 20 1013.6 1013.3 0.0
01/10:00am 18.8 14.1 9.3 54 5.0 SSW 24 35 13 19 1013.2 1012.9 0.0
01/09:30am 17.9 13.0 9.8 59 4.3 SSW 26 35 14 19 1012.7 1012.4 0.0
01/09:00am 17.2 12.3 10.1 63 3.8 SW 26 39 14 21 1012.3 1012.0 0.0
01/08:30am 16.7 11.8 9.9 64 3.6 SW 26 39 14 21 1011.7 1011.4 0.0
01/08:00am 15.9 11.7 9.8 67 3.2 SSW 22 33 12 18 1011.2 1010.9 0.0
01/07:30am 15.3 11.4 9.4 68 3.1 SSW 20 30 11 16 1010.7 1010.4 0.0
01/07:00am 15.6 11.3 9.3 66 3.3 SSW 22 33 12 18 1010.0 1009.7 0.0
01/06:30am 16.2 11.9 9.2 63 3.6 SSW 22 37 12 20 1009.4 1009.1 0.0
01/06:00am 16.5 12.2 11.9 74 2.5 SSW 26 37 14 20 1009.0 1008.7 0.0
01/05:30am 17.4 13.3 12.7 74 2.6 SSW 26 35 14 19 1008.4 1008.1 0.0
01/05:00am 17.7 12.9 13.0 74 2.6 SW 30 43 16 23 1007.8 1007.5 0.0
01/04:30am 18.0 12.7 13.1 73 2.8 SW 33 46 18 25 1007.3 1006.9 0.0
01/04:00am 18.8 14.5 14.5 76 2.5 SW 30 43 16 23 1006.6 1006.2 0.0
01/03:30am 19.1 14.9 14.6 75 2.6 SW 30 41 16 22 1006.7 1006.3 0.0
01/03:00am 19.5 15.1 15.2 76 2.5 SW 32 43 17 23 1007.0 1006.6 0.0
01/02:58am 19.5 15.5 15.2 76 2.5 SW 30 43 16 23 1006.9 1006.5 0.0
01/02:30am 19.8 18.5 16.8 83 1.8 SW 19 24 10 13 1006.2 1005.8 0.0
01/02:00am 20.0 18.4 16.6 81 2.1 SW 20 28 11 15 1005.9 1005.5 0.0
01/01:30am 21.2 18.1 15.5 70 3.4 WSW 26 33 14 18 1007.0 1006.6 0.0
01/01:00am 21.8 22.1 16.1 70 3.5 SSW 9 17 5 9 1006.6 1006.2 0.0
01/12:30am 22.0 22.0 16.3 70 3.5 SSW 11 15 6 8 1006.3 1005.9 0.0
01/12:00am 23.3 22.1 15.1 60 4.9 SSW 15 24 8 13 1005.5 1005.1 0.0
 
Date/Time
EDT
Temp
°C
App
Temp
°C
Dew
Point
Rel
Hum
%
Delta-T
°C
Wind Press
QNH
hPa
Press
MSL
hPa
Rain
since 9 am
mm
Dir
 
Spd
km/h
Gust
km/h
Spd
kts
Gust
kts
28/11:30pm 23.7 22.4 14.7 57 5.4 SSW 15 24 8 13 1005.7 1005.3 0.0
28/11:00pm 24.4 22.8 13.9 52 6.2 SSW 15 22 8 12 1005.8 1005.4 0.0
28/10:30pm 24.6 22.1 14.1 52 6.2 S 20 33 11 18 1005.1 1004.7 0.0
28/10:00pm 25.6 22.3 14.1 49 6.9 SSW 24 39 13 21 1005.0 1004.6 0.0
28/09:44pm 26.0 21.4 14.5 49 6.9 SSW 32 52 17 28 1004.5 1004.1 0.0
28/09:30pm 26.3 21.4 14.4 48 7.1 SSW 33 48 18 26 1004.3 1003.9 0.0
28/09:00pm 27.5 21.1 14.2 44 8.0 SSW 41 63 22 34 1003.1 1002.8 0.0
28/08:43pm 31.6 28.7 12.9 32 11.2 WNW 20 59 11 32 1002.1 1001.8 0.0
28/08:42pm 33.5 29.7 8.9 22 13.9 WNW 19 44 10 24 1002.0 1001.7 0.0
28/08:30pm 32.4 29.5 8.0 22 13.5 NNW 13 15 7 8 1000.8 1000.5 0.0
28/08:00pm 34.2 31.1 7.3 19 15.0 NNW 13 17 7 9 1000.5 1000.2 0.0
28/07:30pm 35.1 30.8 8.0 19 15.2 NW 20 28 11 15 1000.5 1000.2 0.0
28/07:00pm 35.8 30.0 7.8 18 15.8 NW 28 33 15 18 1000.3 1000.0 0.0
28/06:30pm 36.7 31.0 8.5 18 16.1 NW 28 43 15 23 1000.4 1000.1 0.0
28/06:00pm 36.3 31.5 7.4 17 16.3 NW 22 39 12 21 1000.5 1000.2 0.0
28/05:30pm 37.3 31.4 7.3 16 16.9 NW 28 43 15 23 1000.7 1000.4 0.0
28/05:00pm 36.7 30.1 7.7 17 16.4 NW 32 41 17 22 1001.1 1000.8 0.0
28/04:30pm 36.5 31.4 7.5 17 16.3 NW 24 33 13 18 1001.3 1001.0 0.0
28/04:00pm 37.8 31.9 7.7 16 17.1 NW 28 48 15 26 1001.7 1001.4 0.0
28/03:59pm 37.8 31.7 6.7 15 17.4 NW 28 48 15 26 1001.8 1001.5 0.0
28/03:30pm 37.0 31.7 7.0 16 16.8 NW 24 39 13 21 1002.5 1002.2 0.0
28/03:14pm 37.2 31.2 7.2 16 16.8 NNW 28 48 15 26 1002.6 1002.3 0.0
28/03:00pm 36.8 30.4 6.9 16 16.7 NNW 30 43 16 23 1003.0 1002.7 0.0
28/02:30pm 36.4 31.6 7.4 17 16.3 NNW 22 32 12 17 1003.2 1002.9 0.0

Other Formats:

Comma delimited format used in spreadsheet applications
http://www.bom.gov.au/fwo/IDN60801/IDN60801.94843.axf

JavaScript Object Notation format (JSON) in row-major order
http://www.bom.gov.au/fwo/IDN60801/IDN60801.94843.json